Time,TemperatureF,DewpointF,PressureIn,WindDirection,WindDirectionDegrees,WindSpeedMPH,WindSpeedGustMPH,Humidity,HourlyPrecipIn,Conditions,Clouds,dailyrainin,SolarRadiationWatts/m^2,SoftwareType,DateUTC
2013-05-31 05:52:00,63.5,60.2,29.69,South,173,4.5,15.0,89,0.00,CLR,,0.00,7.0,WeatherDisplay:10.37,2013-05-31 10:52:00,
2013-05-31 05:57:00,63.5,60.2,29.69,South,175,9.0,13.2,89,0.00,CLR,,0.00,11.0,WeatherDisplay:10.37,2013-05-31 10:57:00,
2013-05-31 06:02:00,63.7,60.4,29.69,SW,223,7.2,9.2,89,0.00,CLR,,0.00,11.0,WeatherDisplay:10.37,2013-05-31 11:02:00,
2013-05-31 06:07:00,63.9,60.6,29.69,South,187,7.5,15.6,89,0.00,CLR,,0.00,11.0,WeatherDisplay:10.37,2013-05-31 11:07:00,
2013-05-31 06:12:00,64.0,60.4,29.69,SSE,165,7.9,13.2,88,0.00,CLR,,0.00,21.0,WeatherDisplay:10.37,2013-05-31 11:12:00,
2013-05-31 06:17:00,64.0,60.4,29.70,South,182,3.1,6.0,88,0.00,CLR,,0.00,21.0,WeatherDisplay:10.37,2013-05-31 11:17:00,
2013-05-31 06:22:00,64.0,60.4,29.70,South,178,3.0,12.7,88,0.00,CLR,,0.00,40.0,WeatherDisplay:10.37,2013-05-31 11:22:00,
2013-05-31 06:27:00,64.2,60.6,29.70,SW,236,1.2,3.6,88,0.00,CLR,,0.00,40.0,WeatherDisplay:10.37,2013-05-31 11:27:00,
2013-05-31 06:32:00,64.2,60.6,29.69,South,181,6.9,10.8,88,0.00,CLR,,0.00,25.0,WeatherDisplay:10.37,2013-05-31 11:32:00,
2013-05-31 06:37:00,64.2,60.6,29.69,SSE,162,7.2,10.8,88,0.00,CLR,,0.00,33.0,WeatherDisplay:10.37,2013-05-31 11:37:00,
2013-05-31 06:42:00,64.3,60.7,29.69,South,178,1.3,6.0,88,0.00,CLR,,0.00,37.0,WeatherDisplay:10.37,2013-05-31 11:42:00,
2013-05-31 06:47:00,64.3,61.0,29.69,SE,146,4.7,8.4,89,0.00,CLR,,0.00,56.0,WeatherDisplay:10.37,2013-05-31 11:47:00,
2013-05-31 06:52:00,64.3,60.7,29.69,South,172,2.8,8.1,88,0.00,CLR,,0.00,72.0,WeatherDisplay:10.37,2013-05-31 11:52:00,
2013-05-31 06:57:00,64.3,60.7,29.69,South,180,4.5,7.2,88,0.00,CLR,,0.00,65.0,WeatherDisplay:10.37,2013-05-31 11:57:00,
2013-05-31 07:02:00,64.5,60.9,29.69,South,180,3.6,9.2,88,0.00,OVC,,0.00,62.0,WeatherDisplay:10.37,2013-05-31 12:02:00,
2013-05-31 07:07:00,64.5,60.9,29.69,SSE,159,2.3,7.2,88,0.00,OVC,,0.00,86.0,WeatherDisplay:10.37,2013-05-31 12:07:00,
2013-05-31 07:12:00,64.5,60.9,29.69,South,170,7.2,13.2,88,0.00,OVC,,0.00,113.0,WeatherDisplay:10.37,2013-05-31 12:12:00,
2013-05-31 07:17:00,64.7,60.7,29.69,South,170,6.0,10.8,87,0.00,OVC,,0.00,120.0,WeatherDisplay:10.37,2013-05-31 12:17:00,
2013-05-31 07:22:00,64.8,60.8,29.69,South,171,7.4,10.8,87,0.00,OVC,,0.00,202.0,WeatherDisplay:10.37,2013-05-31 12:22:00,
2013-05-31 07:27:00,65.0,61.0,29.69,SSE,153,7.0,15.0,87,0.00,OVC,,0.00,211.0,WeatherDisplay:10.37,2013-05-31 12:27:00,
2013-05-31 07:32:00,65.2,61.2,29.68,SSW,202,4.0,8.4,87,0.00,OVC,,0.00,188.0,WeatherDisplay:10.37,2013-05-31 12:32:00,
2013-05-31 07:37:00,65.3,61.3,29.68,South,186,5.8,10.4,87,0.00,OVC,,0.00,446.0,WeatherDisplay:10.37,2013-05-31 12:37:00,
2013-05-31 07:42:00,65.3,61.0,29.68,SSW,194,6.6,10.8,86,0.00,OVC,,0.00,236.0,WeatherDisplay:10.37,2013-05-31 12:42:00,
2013-05-31 07:47:00,65.5,61.2,29.69,South,170,8.1,10.8,86,0.00,OVC,,0.00,218.0,WeatherDisplay:10.37,2013-05-31 12:47:00,
2013-05-31 07:52:00,65.5,60.9,29.69,South,175,7.9,9.6,85,0.00,OVC,,0.00,211.0,WeatherDisplay:10.37,2013-05-31 12:52:00,
2013-05-31 07:57:00,65.5,61.2,29.69,South,180,8.0,13.2,86,0.00,OVC,,0.00,241.0,WeatherDisplay:10.37,2013-05-31 12:57:00,
2013-05-31 08:02:00,65.5,61.2,29.69,South,180,9.6,13.2,86,0.00,OVC,,0.00,236.0,WeatherDisplay:10.37,2013-05-31 13:02:00,
2013-05-31 08:07:00,65.5,60.9,29.69,South,180,4.8,15.0,85,0.00,OVC,,0.00,285.0,WeatherDisplay:10.37,2013-05-31 13:07:00,
2013-05-31 08:12:00,65.6,61.0,29.69,South,182,4.9,8.1,85,0.00,OVC,,0.00,183.0,WeatherDisplay:10.37,2013-05-31 13:12:00,
2013-05-31 08:17:00,65.8,61.2,29.70,SSW,213,3.3,12.0,85,0.00,OVC,,0.00,260.0,WeatherDisplay:10.37,2013-05-31 13:17:00,
2013-05-31 08:22:00,65.8,61.2,29.70,South,178,9.1,19.6,85,0.00,SCT,,0.00,181.0,WeatherDisplay:10.37,2013-05-31 13:22:00,
2013-05-31 08:27:00,66.0,61.4,29.70,South,179,8.4,15.6,85,0.00,BKN,,0.00,192.0,WeatherDisplay:10.37,2013-05-31 13:27:00,
2013-05-31 08:32:00,66.0,61.4,29.71,SSE,159,4.1,7.2,85,0.00,BKN,,0.00,200.0,WeatherDisplay:10.37,2013-05-31 13:32:00,
2013-05-31 08:37:00,66.0,61.4,29.71,South,172,6.3,9.6,85,0.00,BKN,,0.00,253.0,WeatherDisplay:10.37,2013-05-31 13:37:00,
2013-05-31 08:42:00,66.3,61.7,29.71,SE,143,1.8,8.4,85,0.00,BKN,,0.00,264.0,WeatherDisplay:10.37,2013-05-31 13:42:00,
2013-05-31 08:47:00,66.4,61.8,29.71,South,180,6.1,8.4,85,0.00,BKN,,0.00,276.0,WeatherDisplay:10.37,2013-05-31 13:47:00,
2013-05-31 08:52:00,66.4,61.4,29.71,South,189,3.4,8.1,84,0.00,BKN,,0.00,281.0,WeatherDisplay:10.37,2013-05-31 13:52:00,
2013-05-31 08:57:00,66.4,61.4,29.71,South,182,4.6,8.4,84,0.00,BKN,,0.00,309.0,WeatherDisplay:10.37,2013-05-31 13:57:00,
2013-05-31 09:02:00,66.6,61.6,29.71,South,178,0.9,5.8,84,0.00,BKN,,0.00,265.0,WeatherDisplay:10.37,2013-05-31 14:02:00,
2013-05-31 09:07:00,66.8,61.8,29.71,SSW,200,2.6,9.6,84,0.00,BKN,,0.00,265.0,WeatherDisplay:10.37,2013-05-31 14:07:00,
2013-05-31 09:12:00,66.9,61.9,29.71,South,173,6.4,13.2,84,0.00,BKN,,0.00,322.0,WeatherDisplay:10.37,2013-05-31 14:12:00,
2013-05-31 09:17:00,67.4,62.1,29.70,SSE,156,9.5,15.0,83,0.00,BKN,,0.00,712.0,WeatherDisplay:10.37,2013-05-31 14:17:00,
2013-05-31 09:22:00,67.4,61.7,29.70,South,185,5.6,15.0,82,0.00,FEW,,0.00,599.0,WeatherDisplay:10.37,2013-05-31 14:22:00,
2013-05-31 09:27:00,67.8,61.8,29.70,South,170,4.2,7.2,81,0.00,FEW,,0.00,689.0,WeatherDisplay:10.37,2013-05-31 14:27:00,
2013-05-31 09:32:00,67.9,62.2,29.70,South,190,3.2,6.0,82,0.00,FEW,,0.00,580.0,WeatherDisplay:10.37,2013-05-31 14:32:00,
2013-05-31 09:37:00,68.1,62.4,29.70,South,188,5.8,12.0,82,0.00,SCT,,0.00,541.0,WeatherDisplay:10.37,2013-05-31 14:37:00,
2013-05-31 09:42:00,68.1,62.0,29.70,South,188,3.9,11.5,81,0.00,SCT,,0.00,515.0,WeatherDisplay:10.37,2013-05-31 14:42:00,
2013-05-31 09:47:00,68.1,62.0,29.69,South,174,3.5,10.8,81,0.00,SCT,,0.00,503.0,WeatherDisplay:10.37,2013-05-31 14:47:00,
2013-05-31 09:52:00,68.4,62.3,29.69,SSE,168,5.1,10.8,81,0.00,BKN,,0.00,429.0,WeatherDisplay:10.37,2013-05-31 14:52:00,
2013-05-31 09:57:00,68.6,62.2,29.69,South,178,8.6,12.0,80,0.00,SCT,,0.00,499.0,WeatherDisplay:10.37,2013-05-31 14:57:00,
2013-05-31 10:02:00,68.9,62.5,29.69,South,175,1.3,6.9,80,0.00,SCT,,0.00,606.0,WeatherDisplay:10.37,2013-05-31 15:02:00,
2013-05-31 10:07:00,69.4,63.3,29.69,South,176,5.1,9.6,81,0.00,SCT,,0.00,714.0,WeatherDisplay:10.37,2013-05-31 15:07:00,
2013-05-31 10:12:00,69.6,62.8,29.69,South,188,2.4,7.2,79,0.00,SCT,,0.00,489.0,WeatherDisplay:10.37,2013-05-31 15:12:00,
2013-05-31 10:17:00,69.6,62.8,29.69,South,170,3.1,8.4,79,0.00,BKN,,0.00,490.0,WeatherDisplay:10.37,2013-05-31 15:17:00,
2013-05-31 10:22:00,69.8,63.0,29.69,South,169,7.0,16.1,79,0.00,SCT,,0.00,404.0,WeatherDisplay:10.37,2013-05-31 15:22:00,
2013-05-31 10:27:00,70.1,62.6,29.69,SE,135,5.9,10.8,77,0.00,BKN,,0.00,478.0,WeatherDisplay:10.37,2013-05-31 15:27:00,
2013-05-31 10:32:00,70.1,62.9,29.69,SSE,167,3.7,6.0,78,0.00,BKN,,0.00,578.0,WeatherDisplay:10.37,2013-05-31 15:32:00,
2013-05-31 10:37:00,70.1,62.9,29.69,SSE,163,3.8,8.4,78,0.00,SCT,,0.00,478.0,WeatherDisplay:10.37,2013-05-31 15:37:00,
2013-05-31 10:42:00,70.3,63.5,29.69,South,187,3.8,9.6,79,0.00,BKN,,0.00,494.0,WeatherDisplay:10.37,2013-05-31 15:42:00,
2013-05-31 10:47:00,70.8,63.6,29.70,South,178,2.7,9.6,78,0.00,SCT,,0.00,148.0,WeatherDisplay:10.37,2013-05-31 15:47:00,
2013-05-31 10:52:00,71.3,63.7,29.70,South,171,2.8,8.1,77,0.00,SCT,,0.00,376.0,WeatherDisplay:10.37,2013-05-31 15:52:00,
2013-05-31 10:57:00,71.1,63.5,29.70,SSE,167,8.9,15.0,77,0.00,BKN,,0.00,376.0,WeatherDisplay:10.37,2013-05-31 15:57:00,
2013-05-31 11:02:00,71.1,63.5,29.71,SSW,211,7.6,10.8,77,0.00,BKN,,0.00,408.0,WeatherDisplay:10.37,2013-05-31 16:02:00,
2013-05-31 11:07:00,70.9,63.3,29.71,South,183,5.8,12.0,77,0.00,BKN,,0.00,408.0,WeatherDisplay:10.37,2013-05-31 16:07:00,
2013-05-31 11:12:00,71.6,63.6,29.71,SSW,200,6.8,11.5,76,0.00,SCT,,0.00,958.0,WeatherDisplay:10.37,2013-05-31 16:12:00,
2013-05-31 11:17:00,71.8,63.8,29.70,South,172,8.5,15.0,76,0.00,CLR,,0.00,1044.0,WeatherDisplay:10.37,2013-05-31 16:17:00,
2013-05-31 11:22:00,71.8,63.4,29.70,South,173,1.7,9.2,75,0.00,SCT,,0.00,345.0,WeatherDisplay:10.37,2013-05-31 16:22:00,
2013-05-31 11:27:00,72.0,62.9,29.70,SSW,194,8.8,13.2,73,0.00,SCT,,0.00,366.0,WeatherDisplay:10.37,2013-05-31 16:27:00,
2013-05-31 11:32:00,71.6,62.5,29.70,South,184,8.0,10.8,73,0.00,BKN,,0.00,628.0,WeatherDisplay:10.37,2013-05-31 16:32:00,
2013-05-31 11:37:00,71.5,62.0,29.70,SSE,155,10.1,13.2,72,0.00,BKN,,0.00,394.0,WeatherDisplay:10.37,2013-05-31 16:37:00,
2013-05-31 11:42:00,71.5,62.4,29.70,SSE,163,7.4,9.6,73,0.00,BKN,,0.00,390.0,WeatherDisplay:10.37,2013-05-31 16:42:00,
2013-05-31 11:47:00,71.8,61.9,29.71,South,177,8.8,17.3,71,0.00,BKN,,0.00,378.0,WeatherDisplay:10.37,2013-05-31 16:47:00,
2013-05-31 11:52:00,71.6,62.5,29.71,SSE,156,5.7,8.1,73,0.00,BKN,,0.00,396.0,WeatherDisplay:10.37,2013-05-31 16:52:00,
2013-05-31 11:57:00,72.3,62.4,29.71,South,173,5.7,10.8,71,0.00,SCT,,0.00,1042.0,WeatherDisplay:10.37,2013-05-31 16:57:00,
2013-05-31 12:02:00,72.7,62.3,29.70,SSE,148,5.8,12.7,70,0.00,CLR,,0.00,1046.0,WeatherDisplay:10.37,2013-05-31 17:02:00,
2013-05-31 12:07:00,72.7,62.3,29.70,SSW,202,11.2,16.1,70,0.00,CLR,,0.00,1125.0,WeatherDisplay:10.37,2013-05-31 17:07:00,
2013-05-31 12:12:00,72.5,62.6,29.70,South,174,4.4,10.8,71,0.00,SCT,,0.00,434.0,WeatherDisplay:10.37,2013-05-31 17:12:00,
2013-05-31 12:17:00,72.3,62.4,29.71,South,173,5.4,8.4,71,0.00,BKN,,0.00,271.0,WeatherDisplay:10.37,2013-05-31 17:17:00,
2013-05-31 12:22:00,72.0,62.9,29.71,South,178,2.4,8.1,73,0.00,BKN,,0.00,272.0,WeatherDisplay:10.37,2013-05-31 17:22:00,
2013-05-31 12:27:00,71.8,63.1,29.71,SSW,205,8.4,10.8,74,0.00,BKN,,0.00,373.0,WeatherDisplay:10.37,2013-05-31 17:27:00,
2013-05-31 12:32:00,72.0,63.3,29.71,SSE,163,7.8,15.0,74,0.00,BKN,,0.00,373.0,WeatherDisplay:10.37,2013-05-31 17:32:00,
2013-05-31 12:37:00,72.1,63.0,29.71,South,189,8.2,12.7,73,0.00,BKN,,0.00,373.0,WeatherDisplay:10.37,2013-05-31 17:37:00,
2013-05-31 12:42:00,72.7,63.9,29.71,South,178,5.2,10.4,74,0.00,BKN,,0.00,373.0,WeatherDisplay:10.37,2013-05-31 17:42:00,
2013-05-31 12:47:00,72.5,64.1,29.71,South,172,6.3,8.4,75,0.00,BKN,,0.00,387.0,WeatherDisplay:10.37,2013-05-31 17:47:00,
2013-05-31 12:52:00,72.3,63.5,29.71,SSE,159,5.2,9.6,74,0.00,BKN,,0.00,357.0,WeatherDisplay:10.37,2013-05-31 17:52:00,
2013-05-31 12:57:00,72.3,63.2,29.71,SSW,197,12.4,16.8,73,0.00,BKN,,0.00,352.0,WeatherDisplay:10.37,2013-05-31 17:57:00,
2013-05-31 13:02:00,73.0,63.4,29.71,South,180,1.4,9.2,72,0.00,SCT,,0.00,800.0,WeatherDisplay:10.37,2013-05-31 18:02:00,
2013-05-31 13:07:00,73.3,64.1,29.71,SE,146,2.5,12.0,73,0.00,SCT,,0.00,800.0,WeatherDisplay:10.37,2013-05-31 18:07:00,
2013-05-31 13:12:00,73.5,62.7,29.71,South,184,9.7,16.1,69,0.00,SCT,,0.00,582.0,WeatherDisplay:10.37,2013-05-31 18:12:00,
2013-05-31 13:17:00,73.7,62.9,29.70,South,177,8.3,12.0,69,0.00,SCT,,0.00,956.0,WeatherDisplay:10.37,2013-05-31 18:17:00,
2013-05-31 13:22:00,74.2,63.4,29.70,South,183,9.8,14.4,69,0.00,CLR,,0.00,1201.0,WeatherDisplay:10.37,2013-05-31 18:22:00,
2013-05-31 13:27:00,74.0,62.8,29.70,South,178,7.0,17.3,68,0.00,SCT,,0.00,359.0,WeatherDisplay:10.37,2013-05-31 18:27:00,
2013-05-31 13:32:00,74.0,63.2,29.71,SSE,162,3.2,8.4,69,0.00,BKN,,0.00,517.0,WeatherDisplay:10.37,2013-05-31 18:32:00,
2013-05-31 13:37:00,74.2,62.5,29.71,South,189,10.8,24.2,67,0.00,SCT,,0.00,401.0,WeatherDisplay:10.37,2013-05-31 18:37:00,
2013-05-31 13:42:00,74.4,62.3,29.71,SSW,210,8.5,12.0,66,0.00,BKN,,0.00,366.0,WeatherDisplay:10.37,2013-05-31 18:42:00,
2013-05-31 13:47:00,74.4,62.7,29.71,SW,214,8.6,12.0,67,0.00,BKN,,0.00,309.0,WeatherDisplay:10.37,2013-05-31 18:47:00,
2013-05-31 13:52:00,74.9,63.2,29.71,SSW,200,2.6,8.4,67,0.00,SCT,,0.00,958.0,WeatherDisplay:10.37,2013-05-31 18:52:00,
2013-05-31 13:57:00,75.4,61.9,29.71,South,186,5.5,9.6,63,0.00,FEW,,0.00,946.0,WeatherDisplay:10.37,2013-05-31 18:57:00,
2013-05-31 14:02:00,75.8,62.3,29.69,SSW,209,7.0,13.2,63,0.00,FEW,,0.00,951.0,WeatherDisplay:10.37,2013-05-31 19:02:00,
2013-05-31 14:07:00,76.1,62.1,29.69,SSW,202,7.1,16.8,62,0.00,FEW,,0.00,935.0,WeatherDisplay:10.37,2013-05-31 19:07:00,
2013-05-31 14:12:00,76.3,63.2,29.69,South,188,7.2,15.0,64,0.00,FEW,,0.00,935.0,WeatherDisplay:10.37,2013-05-31 19:12:00,
2013-05-31 14:17:00,76.7,62.7,29.68,SSW,202,6.4,9.6,62,0.00,FEW,,0.00,907.0,WeatherDisplay:10.37,2013-05-31 19:17:00,
2013-05-31 14:22:00,76.5,62.5,29.68,SSW,196,12.1,16.8,62,0.00,FEW,,0.00,932.0,WeatherDisplay:10.37,2013-05-31 19:22:00,
2013-05-31 14:27:00,76.5,62.0,29.68,SSW,192,11.1,17.3,61,0.00,FEW,,0.00,919.0,WeatherDisplay:10.37,2013-05-31 19:27:00,
2013-05-31 14:32:00,76.8,62.8,29.68,South,169,3.6,7.2,62,0.00,FEW,,0.00,868.0,WeatherDisplay:10.37,2013-05-31 19:32:00,
2013-05-31 14:37:00,77.0,62.0,29.68,South,182,10.4,18.4,60,0.00,FEW,,0.00,786.0,WeatherDisplay:10.37,2013-05-31 19:37:00,
2013-05-31 14:42:00,77.2,62.2,29.68,SSE,168,8.8,17.3,60,0.00,FEW,,0.00,847.0,WeatherDisplay:10.37,2013-05-31 19:42:00,
2013-05-31 14:47:00,77.4,61.5,29.67,SSW,207,11.7,24.2,58,0.00,FEW,,0.00,911.0,WeatherDisplay:10.37,2013-05-31 19:47:00,
2013-05-31 14:52:00,77.2,61.3,29.67,South,177,6.0,23.0,58,0.00,FEW,,0.00,853.0,WeatherDisplay:10.37,2013-05-31 19:52:00,
2013-05-31 14:57:00,77.7,62.7,29.67,SSE,165,6.6,14.4,60,0.00,FEW,,0.00,802.0,WeatherDisplay:10.37,2013-05-31 19:57:00,
2013-05-31 15:02:00,78.3,61.8,29.67,SW,224,4.5,8.4,57,0.00,FEW,,0.00,854.0,WeatherDisplay:10.37,2013-05-31 20:02:00,
2013-05-31 15:07:00,78.5,61.0,29.67,SSW,211,12.2,17.3,55,0.00,FEW,,0.00,858.0,WeatherDisplay:10.37,2013-05-31 20:07:00,
2013-05-31 15:12:00,78.5,59.9,29.67,South,177,7.4,16.1,53,0.00,CLR,,0.00,854.0,WeatherDisplay:10.37,2013-05-31 20:12:00,
2013-05-31 15:17:00,78.5,58.9,29.66,SSW,208,14.0,18.4,51,0.00,CLR,,0.00,895.0,WeatherDisplay:10.37,2013-05-31 20:17:00,
2013-05-31 15:22:00,78.6,60.6,29.66,SSW,207,8.4,16.8,54,0.00,CLR,,0.00,947.0,WeatherDisplay:10.37,2013-05-31 20:22:00,
2013-05-31 15:27:00,78.3,58.7,29.66,SSE,165,13.1,16.8,51,0.00,BKN,,0.00,875.0,WeatherDisplay:10.37,2013-05-31 20:27:00,
2013-05-31 15:32:00,78.3,58.1,29.66,SSE,168,16.7,20.7,50,0.00,CLR,,0.00,796.0,WeatherDisplay:10.37,2013-05-31 20:32:00,
2013-05-31 15:37:00,78.3,58.7,29.66,South,173,11.7,18.4,51,0.00,CLR,,0.00,814.0,WeatherDisplay:10.37,2013-05-31 20:37:00,
2013-05-31 15:42:00,78.6,59.0,29.66,South,175,16.6,28.8,51,0.00,CLR,,0.00,795.0,WeatherDisplay:10.37,2013-05-31 20:42:00,
2013-05-31 15:47:00,78.5,59.9,29.65,South,172,12.0,19.2,53,0.00,CLR,,0.00,856.0,WeatherDisplay:10.37,2013-05-31 20:47:00,
2013-05-31 15:52:00,78.5,59.9,29.65,SSW,195,11.4,19.2,53,0.00,CLR,,0.00,838.0,WeatherDisplay:10.37,2013-05-31 20:52:00,
2013-05-31 15:57:00,78.5,59.9,29.65,SSE,157,9.4,15.6,53,0.00,CLR,,0.00,891.0,WeatherDisplay:10.37,2013-05-31 20:57:00,
2013-05-31 16:02:00,79.0,60.4,29.65,SSE,164,10.3,15.0,53,0.00,CLR,,0.00,861.0,WeatherDisplay:10.37,2013-05-31 21:02:00,
2013-05-31 16:07:00,79.0,59.9,29.65,South,184,10.6,18.4,52,0.00,CLR,,0.00,768.0,WeatherDisplay:10.37,2013-05-31 21:07:00,
2013-05-31 16:12:00,78.5,58.9,29.65,SSE,162,10.0,12.0,51,0.00,SCT,,0.00,731.0,WeatherDisplay:10.37,2013-05-31 21:12:00,
2013-05-31 16:17:00,78.3,59.2,29.64,South,182,10.4,15.0,52,0.00,CLR,,0.00,798.0,WeatherDisplay:10.37,2013-05-31 21:17:00,
2013-05-31 16:22:00,78.3,58.7,29.64,SE,142,13.2,15.0,51,0.00,CLR,,0.00,721.0,WeatherDisplay:10.37,2013-05-31 21:22:00,
2013-05-31 16:27:00,78.5,59.9,29.64,South,183,10.3,16.8,53,0.00,CLR,,0.00,643.0,WeatherDisplay:10.37,2013-05-31 21:27:00,
2013-05-31 16:32:00,78.6,60.0,29.64,SSW,211,9.3,15.6,53,0.00,FEW,,0.00,629.0,WeatherDisplay:10.37,2013-05-31 21:32:00,
2013-05-31 16:37:00,77.9,59.4,29.64,SSW,192,9.0,15.6,53,0.00,FEW,,0.00,619.0,WeatherDisplay:10.37,2013-05-31 21:37:00,
2013-05-31 16:42:00,77.7,58.7,29.64,SSE,161,12.0,19.2,52,0.00,CLR,,0.00,654.0,WeatherDisplay:10.37,2013-05-31 21:42:00,
2013-05-31 16:47:00,77.4,58.9,29.65,SSW,205,10.7,17.3,53,0.00,FEW,,0.00,633.0,WeatherDisplay:10.37,2013-05-31 21:47:00,
2013-05-31 16:52:00,77.6,59.6,29.65,SSW,209,8.9,13.2,54,0.00,CLR,,0.00,642.0,WeatherDisplay:10.37,2013-05-31 21:52:00,
2013-05-31 16:57:00,77.2,59.3,29.65,South,175,9.2,15.0,54,0.00,CLR,,0.00,580.0,WeatherDisplay:10.37,2013-05-31 21:57:00,
2013-05-31 17:02:00,77.0,59.6,29.64,South,184,12.5,18.0,55,0.00,CLR,,0.00,580.0,WeatherDisplay:10.37,2013-05-31 22:02:00,
2013-05-31 17:07:00,76.7,59.3,29.64,South,180,12.7,21.9,55,0.00,SCT,,0.00,207.0,WeatherDisplay:10.37,2013-05-31 22:07:00,
2013-05-31 17:12:00,76.5,59.6,29.64,SSE,166,10.9,22.8,56,0.00,BKN,,0.00,218.0,WeatherDisplay:10.37,2013-05-31 22:12:00,
2013-05-31 17:17:00,76.7,59.8,29.65,SSW,196,13.3,19.6,56,0.00,BKN,,0.00,628.0,WeatherDisplay:10.37,2013-05-31 22:17:00,
2013-05-31 17:22:00,76.3,59.9,29.65,South,182,14.4,20.7,57,0.00,SCT,,0.00,199.0,WeatherDisplay:10.37,2013-05-31 22:22:00,
2013-05-31 17:27:00,76.0,60.2,29.65,South,173,8.1,10.8,58,0.00,BKN,,0.00,121.0,WeatherDisplay:10.37,2013-05-31 22:27:00,
2013-05-31 17:32:00,75.6,59.8,29.65,South,169,10.1,15.0,58,0.00,BKN,,0.00,134.0,WeatherDisplay:10.37,2013-05-31 22:32:00,
2013-05-31 17:37:00,75.6,60.3,29.65,South,183,5.8,7.2,59,0.00,BKN,,0.00,478.0,WeatherDisplay:10.37,2013-05-31 22:37:00,
2013-05-31 17:42:00,75.8,60.9,29.65,South,186,7.7,14.4,60,0.00,BKN,,0.00,276.0,WeatherDisplay:10.37,2013-05-31 22:42:00,
2013-05-31 17:47:00,75.8,60.4,29.65,SSE,163,6.6,8.4,59,0.00,BKN,,0.00,492.0,WeatherDisplay:10.37,2013-05-31 22:47:00,
2013-05-31 17:52:00,76.0,61.1,29.65,SSW,204,4.1,8.4,60,0.00,BKN,,0.00,394.0,WeatherDisplay:10.37,2013-05-31 22:52:00,
2013-05-31 17:57:00,76.0,60.6,29.65,SSW,193,9.2,15.0,59,0.00,BKN,,0.00,367.0,WeatherDisplay:10.37,2013-05-31 22:57:00,
2013-05-31 18:02:00,75.8,60.0,29.64,South,178,8.0,16.8,58,0.00,BKN,,0.00,350.0,WeatherDisplay:10.37,2013-05-31 23:02:00,
2013-05-31 18:07:00,75.6,60.7,29.64,SSE,166,7.4,18.4,60,0.00,BKN,,0.00,336.0,WeatherDisplay:10.37,2013-05-31 23:07:00,
2013-05-31 18:12:00,75.8,60.0,29.64,South,182,8.9,12.0,58,0.00,BKN,,0.00,327.0,WeatherDisplay:10.37,2013-05-31 23:12:00,
2013-05-31 18:17:00,75.8,60.0,29.64,South,169,9.9,20.7,58,0.00,BKN,,0.00,336.0,WeatherDisplay:10.37,2013-05-31 23:17:00,
2013-05-31 18:22:00,75.8,60.9,29.64,SSE,167,3.9,8.4,60,0.00,BKN,,0.00,308.0,WeatherDisplay:10.37,2013-05-31 23:22:00,
2013-05-31 18:27:00,75.6,60.7,29.64,South,178,6.4,12.0,60,0.00,BKN,,0.00,297.0,WeatherDisplay:10.37,2013-05-31 23:27:00,
2013-05-31 18:32:00,75.6,61.7,29.63,South,170,7.4,12.0,62,0.00,BKN,,0.00,290.0,WeatherDisplay:10.37,2013-05-31 23:32:00,
2013-05-31 18:37:00,75.6,61.7,29.63,South,172,2.6,14.4,62,0.00,BKN,,0.00,272.0,WeatherDisplay:10.37,2013-05-31 23:37:00,
2013-05-31 18:42:00,75.3,61.4,29.63,South,179,5.2,13.2,62,0.00,BKN,,0.00,223.0,WeatherDisplay:10.37,2013-05-31 23:42:00,
2013-05-31 18:47:00,75.1,61.6,29.63,South,175,5.7,8.4,63,0.00,BKN,,0.00,227.0,WeatherDisplay:10.37,2013-05-31 23:47:00,
2013-05-31 18:52:00,75.1,61.6,29.63,South,176,4.3,9.6,63,0.00,BKN,,0.00,218.0,WeatherDisplay:10.37,2013-05-31 23:52:00,
2013-05-31 18:57:00,74.9,61.9,29.63,South,171,3.0,7.2,64,0.00,BKN,,0.00,37.0,WeatherDisplay:10.37,2013-05-31 23:57:00,
2013-05-31 19:02:00,74.6,62.1,29.63,SSW,198,6.8,14.4,65,0.00,BKN,,0.00,172.0,WeatherDisplay:10.37,2013-06-01 00:02:00,
2013-05-31 19:07:00,74.6,62.1,29.63,South,180,3.6,12.0,65,0.00,BKN,,0.00,172.0,WeatherDisplay:10.37,2013-06-01 00:07:00,
2013-05-31 19:12:00,74.4,61.4,29.63,South,176,2.1,10.4,64,0.00,BKN,,0.00,179.0,WeatherDisplay:10.37,2013-06-01 00:12:00,
2013-05-31 19:17:00,74.4,61.9,29.63,South,181,3.6,8.4,65,0.00,BKN,,0.00,113.0,WeatherDisplay:10.37,2013-06-01 00:17:00,
2013-05-31 19:22:00,74.2,61.2,29.63,South,183,5.2,8.4,64,0.00,BKN,,0.00,39.0,WeatherDisplay:10.37,2013-06-01 00:22:00,
2013-05-31 19:27:00,74.0,61.0,29.63,South,170,4.4,8.1,64,0.00,BKN,,0.00,35.0,WeatherDisplay:10.37,2013-06-01 00:27:00,
2013-05-31 19:32:00,73.9,61.4,29.63,South,169,5.7,12.0,65,0.00,BKN,,0.00,30.0,WeatherDisplay:10.37,2013-06-01 00:32:00,
2013-05-31 19:37:00,73.5,61.4,29.63,South,188,6.3,12.7,66,0.00,BKN,,0.00,28.0,WeatherDisplay:10.37,2013-06-01 00:37:00,
2013-05-31 19:42:00,73.3,61.7,29.63,South,174,2.0,6.0,67,0.00,BKN,,0.00,26.0,WeatherDisplay:10.37,2013-06-01 00:42:00,
2013-05-31 19:47:00,73.0,61.4,29.63,SSE,167,4.1,10.8,67,0.00,BKN,,0.00,25.0,WeatherDisplay:10.37,2013-06-01 00:47:00,
2013-05-31 19:52:00,73.0,61.8,29.63,South,171,0.3,4.6,68,0.00,BKN,,0.00,21.0,WeatherDisplay:10.37,2013-06-01 00:52:00,
2013-05-31 19:57:00,72.8,61.2,29.63,SSW,202,5.4,9.6,67,0.00,BKN,,0.00,19.0,WeatherDisplay:10.37,2013-06-01 00:57:00,
2013-05-31 20:02:00,72.8,61.2,29.64,SSW,198,6.7,12.0,67,0.00,BKN,,0.00,14.0,WeatherDisplay:10.37,2013-06-01 01:02:00,
2013-05-31 20:07:00,72.7,61.5,29.64,South,188,0.8,3.6,68,0.00,BKN,,0.00,11.0,WeatherDisplay:10.37,2013-06-01 01:07:00,
2013-05-31 20:12:00,72.3,61.6,29.64,South,181,1.2,6.0,69,0.00,BKN,,0.00,9.0,WeatherDisplay:10.37,2013-06-01 01:12:00,
2013-05-31 20:17:00,72.1,61.8,29.63,South,184,0.1,1.2,70,0.00,BKN,,0.00,7.0,WeatherDisplay:10.37,2013-06-01 01:17:00,
2013-05-31 20:22:00,71.8,61.5,29.63,South,178,1.0,6.0,70,0.00,BKN,,0.00,7.0,WeatherDisplay:10.37,2013-06-01 01:22:00,
2013-05-31 20:27:00,71.6,61.7,29.63,South,178,1.4,6.0,71,0.00,BKN,,0.00,5.0,WeatherDisplay:10.37,2013-06-01 01:27:00,
2013-05-31 20:32:00,71.3,61.8,29.63,South,178,3.9,7.2,72,0.00,BKN,,0.00,0.0,WeatherDisplay:10.37,2013-06-01 01:32:00,
2013-05-31 20:37:00,71.1,61.6,29.63,South,178,2.0,4.8,72,0.00,BKN,,0.00,0.0,WeatherDisplay:10.37,2013-06-01 01:37:00,
2013-05-31 20:42:00,70.9,61.8,29.63,South,179,0.9,6.9,73,0.00,BKN,,0.00,0.0,WeatherDisplay:10.37,2013-06-01 01:42:00,
2013-05-31 20:47:00,70.8,61.7,29.64,South,180,0.2,3.5,73,0.00,BKN,,0.00,0.0,WeatherDisplay:10.37,2013-06-01 01:47:00,
2013-05-31 20:52:00,70.6,61.5,29.64,SSW,202,2.3,7.2,73,0.00,BKN,,0.00,0.0,WeatherDisplay:10.37,2013-06-01 01:52:00,
2013-05-31 20:57:00,70.6,61.5,29.64,SSW,200,2.0,6.0,73,0.00,BKN,,0.00,0.0,WeatherDisplay:10.37,2013-06-01 01:57:00,
2013-05-31 21:02:00,70.6,61.5,29.64,South,189,0.0,1.2,73,0.00,BKN,,0.00,0.0,WeatherDisplay:10.37,2013-06-01 02:02:00,
2013-05-31 21:07:00,70.4,61.7,29.64,South,185,3.3,4.8,74,0.00,BKN,,0.00,0.0,WeatherDisplay:10.37,2013-06-01 02:07:00,
2013-05-31 21:12:00,70.3,61.6,29.64,South,183,0.6,3.6,74,0.00,BKN,,0.00,0.0,WeatherDisplay:10.37,2013-06-01 02:12:00,
2013-05-31 21:17:00,70.1,61.4,29.64,South,183,2.0,3.6,74,0.00,BKN,,0.00,0.0,WeatherDisplay:10.37,2013-06-01 02:17:00,
2013-05-31 21:22:00,70.1,61.4,29.64,South,185,1.8,8.4,74,0.00,BKN,,0.00,0.0,WeatherDisplay:10.37,2013-06-01 02:22:00,
2013-05-31 21:27:00,69.9,61.2,29.64,South,186,0.3,2.4,74,0.00,BKN,,0.00,0.0,WeatherDisplay:10.37,2013-06-01 02:27:00,
2013-05-31 21:32:00,69.9,61.6,29.64,South,183,3.2,6.0,75,0.00,BKN,,0.00,0.0,WeatherDisplay:10.37,2013-06-01 02:32:00,
2013-05-31 21:37:00,69.8,61.5,29.64,South,183,0.0,0.0,75,0.00,BKN,,0.00,0.0,WeatherDisplay:10.37,2013-06-01 02:37:00,
2013-05-31 21:42:00,69.4,61.5,29.64,South,183,1.4,3.6,76,0.00,BKN,,0.00,0.0,WeatherDisplay:10.37,2013-06-01 02:42:00,
2013-05-31 21:47:00,69.1,61.6,29.64,South,183,0.6,4.8,77,0.00,BKN,,0.00,0.0,WeatherDisplay:10.37,2013-06-01 02:47:00,
2013-05-31 21:52:00,68.8,61.3,29.64,South,183,0.0,1.2,77,0.00,BKN,,0.00,0.0,WeatherDisplay:10.37,2013-06-01 02:52:00,
2013-05-31 21:57:00,68.6,61.5,29.64,South,183,0.1,1.2,78,0.00,BKN,,0.00,0.0,WeatherDisplay:10.37,2013-06-01 02:57:00,
2013-05-31 22:02:00,68.6,61.5,29.65,South,183,0.1,1.2,78,0.00,BKN,,0.00,0.0,WeatherDisplay:10.37,2013-06-01 03:02:00,
2013-05-31 22:07:00,68.6,61.8,29.65,South,183,0.0,1.2,79,0.00,BKN,,0.00,0.0,WeatherDisplay:10.37,2013-06-01 03:07:00,
2013-05-31 22:12:00,68.6,61.8,29.65,South,181,1.8,4.8,79,0.00,BKN,,0.00,0.0,WeatherDisplay:10.37,2013-06-01 03:12:00,
2013-05-31 22:17:00,68.8,62.0,29.64,South,181,1.3,3.6,79,0.00,BKN,,0.00,0.0,WeatherDisplay:10.37,2013-06-01 03:17:00,
2013-05-31 22:22:00,68.8,62.0,29.64,South,181,0.0,1.2,79,0.00,BKN,,0.00,0.0,WeatherDisplay:10.37,2013-06-01 03:22:00,
2013-05-31 22:27:00,68.8,61.7,29.64,South,179,0.0,2.3,78,0.00,BKN,,0.00,0.0,WeatherDisplay:10.37,2013-06-01 03:27:00,
2013-05-31 22:32:00,68.8,61.7,29.64,South,179,0.1,1.2,78,0.00,BKN,,0.00,0.0,WeatherDisplay:10.37,2013-06-01 03:32:00,
2013-05-31 22:37:00,68.8,62.0,29.64,South,179,0.0,1.2,79,0.00,BKN,,0.00,0.0,WeatherDisplay:10.37,2013-06-01 03:37:00,
2013-05-31 22:42:00,68.4,61.6,29.64,South,179,0.0,0.0,79,0.00,BKN,,0.00,0.0,WeatherDisplay:10.37,2013-06-01 03:42:00,
2013-05-31 22:47:00,68.3,61.9,29.64,South,179,0.0,1.2,80,0.00,BKN,,0.00,0.0,WeatherDisplay:10.37,2013-06-01 03:47:00,
2013-05-31 22:53:00,68.1,61.7,29.64,South,179,0.0,1.2,80,0.00,BKN,,0.00,0.0,WeatherDisplay:10.37,2013-06-01 03:53:00,
2013-05-31 22:58:00,67.9,61.9,29.64,South,179,0.0,0.0,81,0.00,BKN,,0.00,0.0,WeatherDisplay:10.37,2013-06-01 03:58:00,
2013-05-31 23:01:00,67.8,61.8,29.64,South,179,0.0,1.2,81,0.00,BKN,,0.00,0.0,WeatherDisplay:10.37,2013-06-01 04:01:00,
2013-05-31 23:03:00,67.6,61.6,29.64,South,179,0.0,0.0,81,0.00,BKN,,0.00,0.0,WeatherDisplay:10.37,2013-06-01 04:03:00,
2013-05-31 23:08:00,67.4,61.7,29.64,South,179,0.0,1.2,82,0.00,BKN,,0.00,0.0,WeatherDisplay:10.37,2013-06-01 04:08:00,
2013-05-31 23:13:00,67.1,61.4,29.64,South,179,0.0,0.0,82,0.00,BKN,,0.00,0.0,WeatherDisplay:10.37,2013-06-01 04:13:00,
2013-05-31 23:18:00,66.9,61.6,29.64,South,179,0.0,0.0,83,0.00,BKN,,0.00,0.0,WeatherDisplay:10.37,2013-06-01 04:18:00,
2013-05-31 23:23:00,66.8,61.5,29.64,South,179,0.0,0.0,83,0.00,BKN,,0.00,0.0,WeatherDisplay:10.37,2013-06-01 04:23:00,
2013-05-31 23:28:00,66.6,61.6,29.64,South,179,0.0,0.0,84,0.00,BKN,,0.00,0.0,WeatherDisplay:10.37,2013-06-01 04:28:00,
2013-05-31 23:33:00,66.4,61.4,29.63,South,179,0.0,0.0,84,0.00,BKN,,0.00,0.0,WeatherDisplay:10.37,2013-06-01 04:33:00,
2013-05-31 23:38:00,66.1,61.5,29.63,South,179,0.0,0.0,85,0.00,BKN,,0.00,0.0,WeatherDisplay:10.37,2013-06-01 04:38:00,
2013-05-31 23:43:00,66.0,61.4,29.63,South,179,0.0,0.0,85,0.00,BKN,,0.00,0.0,WeatherDisplay:10.37,2013-06-01 04:43:00,
2013-05-31 23:48:00,65.8,61.5,29.64,South,179,0.0,0.0,86,0.00,BKN,,0.00,0.0,WeatherDisplay:10.37,2013-06-01 04:48:00,
2013-05-31 23:53:00,65.6,61.6,29.64,South,179,0.0,0.0,87,0.00,BKN,,0.00,0.0,WeatherDisplay:10.37,2013-06-01 04:53:00,
2013-05-31 23:58:00,65.6,61.6,29.64,South,179,0.0,0.0,87,0.00,BKN,,0.00,0.0,WeatherDisplay:10.37,2013-06-01 04:58:00,